sensor_id;sensor_type;location;lat;lon;timestamp;P1;durP1;ratioP1;P2;durP2;ratioP2
77085;SDS011;66014;53.134;18.006;2023-08-12T00:00:45;12.00;;;4.60;;
77085;SDS011;66014;53.134;18.006;2023-08-12T00:03:30;9.40;;;4.30;;
77085;SDS011;66014;53.134;18.006;2023-08-12T00:05:57;11.90;;;5.60;;
77085;SDS011;66014;53.134;18.006;2023-08-12T00:08:26;16.00;;;5.70;;
77085;SDS011;66014;53.134;18.006;2023-08-12T00:10:53;11.00;;;5.40;;
77085;SDS011;66014;53.134;18.006;2023-08-12T00:13:19;10.10;;;5.30;;
77085;SDS011;66014;53.134;18.006;2023-08-12T00:15:47;10.50;;;5.20;;
77085;SDS011;66014;53.134;18.006;2023-08-12T00:18:13;7.50;;;4.60;;
77085;SDS011;66014;53.134;18.006;2023-08-12T00:20:39;10.10;;;5.10;;
77085;SDS011;66014;53.134;18.006;2023-08-12T00:23:06;10.20;;;4.80;;
77085;SDS011;66014;53.134;18.006;2023-08-12T00:25:32;9.40;;;5.80;;
77085;SDS011;66014;53.134;18.006;2023-08-12T00:27:59;11.60;;;4.50;;
77085;SDS011;66014;53.134;18.006;2023-08-12T00:30:26;8.30;;;4.40;;
77085;SDS011;66014;53.134;18.006;2023-08-12T00:32:53;7.80;;;4.20;;
77085;SDS011;66014;53.134;18.006;2023-08-12T00:35:19;7.20;;;4.00;;
77085;SDS011;66014;53.134;18.006;2023-08-12T00:37:45;9.30;;;4.10;;
77085;SDS011;66014;53.134;18.006;2023-08-12T00:40:12;10.10;;;4.10;;
77085;SDS011;66014;53.134;18.006;2023-08-12T00:42:39;10.00;;;4.50;;
77085;SDS011;66014;53.134;18.006;2023-08-12T00:45:09;9.40;;;4.80;;
77085;SDS011;66014;53.134;18.006;2023-08-12T00:47:37;10.00;;;4.30;;
77085;SDS011;66014;53.134;18.006;2023-08-12T00:50:04;9.20;;;4.30;;
77085;SDS011;66014;53.134;18.006;2023-08-12T00:52:32;10.40;;;4.90;;
77085;SDS011;66014;53.134;18.006;2023-08-12T00:54:58;10.30;;;4.60;;
77085;SDS011;66014;53.134;18.006;2023-08-12T00:57:25;10.60;;;5.10;;
77085;SDS011;66014;53.134;18.006;2023-08-12T00:59:52;11.50;;;5.60;;
77085;SDS011;66014;53.134;18.006;2023-08-12T01:02:21;9.40;;;5.00;;
77085;SDS011;66014;53.134;18.006;2023-08-12T01:04:48;9.10;;;5.00;;
77085;SDS011;66014;53.134;18.006;2023-08-12T01:07:14;12.50;;;5.40;;
77085;SDS011;66014;53.134;18.006;2023-08-12T01:09:41;15.60;;;5.40;;
77085;SDS011;66014;53.134;18.006;2023-08-12T01:12:10;10.90;;;5.40;;
77085;SDS011;66014;53.134;18.006;2023-08-12T01:14:54;10.60;;;4.70;;
77085;SDS011;66014;53.134;18.006;2023-08-12T01:17:24;13.40;;;7.80;;
77085;SDS011;66014;53.134;18.006;2023-08-12T01:19:55;9.40;;;5.60;;
77085;SDS011;66014;53.134;18.006;2023-08-12T01:22:22;12.00;;;5.90;;
77085;SDS011;66014;53.134;18.006;2023-08-12T01:24:51;12.20;;;5.40;;
77085;SDS011;66014;53.134;18.006;2023-08-12T01:27:18;11.80;;;5.50;;
77085;SDS011;66014;53.134;18.006;2023-08-12T01:29:48;12.00;;;6.20;;
77085;SDS011;66014;53.134;18.006;2023-08-12T01:32:23;12.00;;;6.00;;
77085;SDS011;66014;53.134;18.006;2023-08-12T01:37:33;19.30;;;6.60;;
77085;SDS011;66014;53.134;18.006;2023-08-12T01:40:02;17.10;;;5.80;;
77085;SDS011;66014;53.134;18.006;2023-08-12T01:42:32;12.70;;;5.80;;
77085;SDS011;66014;53.134;18.006;2023-08-12T01:45:00;10.20;;;5.90;;
77085;SDS011;66014;53.134;18.006;2023-08-12T01:47:27;17.70;;;6.30;;
77085;SDS011;66014;53.134;18.006;2023-08-12T01:49:55;17.40;;;6.50;;
77085;SDS011;66014;53.134;18.006;2023-08-12T01:52:22;12.40;;;6.00;;
77085;SDS011;66014;53.134;18.006;2023-08-12T01:54:49;11.70;;;5.70;;
77085;SDS011;66014;53.134;18.006;2023-08-12T01:57:15;11.40;;;5.70;;
77085;SDS011;66014;53.134;18.006;2023-08-12T01:59:42;12.90;;;5.80;;
77085;SDS011;66014;53.134;18.006;2023-08-12T02:02:10;9.40;;;5.60;;
77085;SDS011;66014;53.134;18.006;2023-08-12T02:04:37;13.30;;;5.30;;
77085;SDS011;66014;53.134;18.006;2023-08-12T02:07:04;11.40;;;5.80;;
77085;SDS011;66014;53.134;18.006;2023-08-12T02:09:31;11.00;;;5.60;;
77085;SDS011;66014;53.134;18.006;2023-08-12T02:11:59;11.00;;;5.40;;
77085;SDS011;66014;53.134;18.006;2023-08-12T02:14:25;16.10;;;5.90;;
77085;SDS011;66014;53.134;18.006;2023-08-12T02:16:52;12.50;;;6.30;;
77085;SDS011;66014;53.134;18.006;2023-08-12T02:19:18;12.40;;;5.40;;
77085;SDS011;66014;53.134;18.006;2023-08-12T02:21:45;11.20;;;5.70;;
77085;SDS011;66014;53.134;18.006;2023-08-12T02:24:12;12.90;;;6.00;;
77085;SDS011;66014;53.134;18.006;2023-08-12T02:26:38;10.00;;;5.60;;
77085;SDS011;66014;53.134;18.006;2023-08-12T02:29:05;7.90;;;5.30;;
77085;SDS011;66014;53.134;18.006;2023-08-12T02:31:31;11.10;;;5.70;;
77085;SDS011;66014;53.134;18.006;2023-08-12T02:33:57;8.70;;;5.40;;
77085;SDS011;66014;53.134;18.006;2023-08-12T02:36:24;10.10;;;6.40;;
77085;SDS011;66014;53.134;18.006;2023-08-12T02:38:52;11.90;;;6.00;;
77085;SDS011;66014;53.134;18.006;2023-08-12T02:41:18;16.20;;;7.40;;
77085;SDS011;66014;53.134;18.006;2023-08-12T02:43:45;10.70;;;6.40;;
77085;SDS011;66014;53.134;18.006;2023-08-12T02:46:11;12.90;;;6.20;;
77085;SDS011;66014;53.134;18.006;2023-08-12T02:48:39;12.10;;;6.60;;
77085;SDS011;66014;53.134;18.006;2023-08-12T02:51:05;11.00;;;6.10;;
77085;SDS011;66014;53.134;18.006;2023-08-12T02:53:31;13.50;;;5.80;;
77085;SDS011;66014;53.134;18.006;2023-08-12T02:55:58;10.20;;;6.00;;
77085;SDS011;66014;53.134;18.006;2023-08-12T02:58:24;16.40;;;7.40;;
77085;SDS011;66014;53.134;18.006;2023-08-12T03:00:51;12.30;;;7.20;;
77085;SDS011;66014;53.134;18.006;2023-08-12T03:03:21;16.50;;;6.80;;
77085;SDS011;66014;53.134;18.006;2023-08-12T03:05:47;11.60;;;7.50;;
77085;SDS011;66014;53.134;18.006;2023-08-12T03:08:15;15.50;;;8.00;;
77085;SDS011;66014;53.134;18.006;2023-08-12T03:10:41;17.80;;;8.00;;
77085;SDS011;66014;53.134;18.006;2023-08-12T03:13:08;15.00;;;9.00;;
77085;SDS011;66014;53.134;18.006;2023-08-12T03:15:37;14.70;;;9.10;;
77085;SDS011;66014;53.134;18.006;2023-08-12T03:18:05;16.60;;;9.00;;
77085;SDS011;66014;53.134;18.006;2023-08-12T03:20:32;14.50;;;9.10;;
77085;SDS011;66014;53.134;18.006;2023-08-12T03:22:59;16.50;;;9.00;;
77085;SDS011;66014;53.134;18.006;2023-08-12T03:25:29;13.80;;;10.00;;
77085;SDS011;66014;53.134;18.006;2023-08-12T03:27:55;13.80;;;8.60;;
77085;SDS011;66014;53.134;18.006;2023-08-12T03:30:21;16.20;;;8.50;;
77085;SDS011;66014;53.134;18.006;2023-08-12T03:32:48;15.80;;;8.30;;
77085;SDS011;66014;53.134;18.006;2023-08-12T03:35:15;13.10;;;8.50;;
77085;SDS011;66014;53.134;18.006;2023-08-12T03:37:41;14.80;;;8.00;;
77085;SDS011;66014;53.134;18.006;2023-08-12T03:40:08;15.80;;;7.70;;
77085;SDS011;66014;53.134;18.006;2023-08-12T03:42:35;14.10;;;7.10;;
77085;SDS011;66014;53.134;18.006;2023-08-12T03:45:01;10.90;;;6.60;;
77085;SDS011;66014;53.134;18.006;2023-08-12T03:47:28;11.60;;;6.90;;
77085;SDS011;66014;53.134;18.006;2023-08-12T03:49:57;12.60;;;7.20;;
77085;SDS011;66014;53.134;18.006;2023-08-12T03:52:24;11.70;;;7.00;;
77085;SDS011;66014;53.134;18.006;2023-08-12T03:54:50;13.80;;;6.80;;
77085;SDS011;66014;53.134;18.006;2023-08-12T03:57:19;11.20;;;6.00;;
77085;SDS011;66014;53.134;18.006;2023-08-12T03:59:45;13.40;;;6.90;;
77085;SDS011;66014;53.134;18.006;2023-08-12T04:02:12;13.30;;;7.10;;
77085;SDS011;66014;53.134;18.006;2023-08-12T04:04:38;12.40;;;6.50;;
77085;SDS011;66014;53.134;18.006;2023-08-12T04:07:05;12.70;;;6.20;;
77085;SDS011;66014;53.134;18.006;2023-08-12T04:09:31;11.20;;;5.90;;
77085;SDS011;66014;53.134;18.006;2023-08-12T04:11:57;13.20;;;6.30;;
77085;SDS011;66014;53.134;18.006;2023-08-12T04:14:24;12.30;;;6.70;;
77085;SDS011;66014;53.134;18.006;2023-08-12T04:16:51;14.80;;;7.20;;
77085;SDS011;66014;53.134;18.006;2023-08-12T04:19:18;13.20;;;6.10;;
77085;SDS011;66014;53.134;18.006;2023-08-12T04:21:44;13.40;;;7.60;;
77085;SDS011;66014;53.134;18.006;2023-08-12T04:24:12;13.00;;;5.80;;
77085;SDS011;66014;53.134;18.006;2023-08-12T04:26:39;12.50;;;5.60;;
77085;SDS011;66014;53.134;18.006;2023-08-12T04:29:06;9.40;;;5.40;;
77085;SDS011;66014;53.134;18.006;2023-08-12T04:31:33;12.80;;;5.90;;
77085;SDS011;66014;53.134;18.006;2023-08-12T04:33:59;12.70;;;6.50;;
77085;SDS011;66014;53.134;18.006;2023-08-12T04:36:26;13.70;;;6.30;;
77085;SDS011;66014;53.134;18.006;2023-08-12T04:38:53;9.70;;;5.70;;
77085;SDS011;66014;53.134;18.006;2023-08-12T04:41:19;12.50;;;5.60;;
77085;SDS011;66014;53.134;18.006;2023-08-12T04:43:46;10.20;;;5.50;;
77085;SDS011;66014;53.134;18.006;2023-08-12T04:46:12;12.10;;;5.10;;
77085;SDS011;66014;53.134;18.006;2023-08-12T04:48:39;13.20;;;6.10;;
77085;SDS011;66014;53.134;18.006;2023-08-12T04:51:05;10.50;;;6.10;;
77085;SDS011;66014;53.134;18.006;2023-08-12T04:53:33;14.50;;;5.70;;
77085;SDS011;66014;53.134;18.006;2023-08-12T04:55:59;12.90;;;5.80;;
77085;SDS011;66014;53.134;18.006;2023-08-12T04:58:26;9.40;;;5.70;;
77085;SDS011;66014;53.134;18.006;2023-08-12T05:00:52;9.50;;;5.90;;
77085;SDS011;66014;53.134;18.006;2023-08-12T05:03:19;14.30;;;5.80;;
77085;SDS011;66014;53.134;18.006;2023-08-12T05:05:51;15.00;;;6.10;;
77085;SDS011;66014;53.134;18.006;2023-08-12T05:08:18;13.50;;;6.50;;
77085;SDS011;66014;53.134;18.006;2023-08-12T05:10:48;12.70;;;7.10;;
77085;SDS011;66014;53.134;18.006;2023-08-12T05:13:15;11.60;;;6.20;;
77085;SDS011;66014;53.134;18.006;2023-08-12T05:15:44;10.70;;;6.00;;
77085;SDS011;66014;53.134;18.006;2023-08-12T05:18:14;16.30;;;6.70;;
77085;SDS011;66014;53.134;18.006;2023-08-12T05:20:41;11.80;;;5.80;;
77085;SDS011;66014;53.134;18.006;2023-08-12T05:23:08;11.20;;;6.00;;
77085;SDS011;66014;53.134;18.006;2023-08-12T05:25:35;13.60;;;6.90;;
77085;SDS011;66014;53.134;18.006;2023-08-12T05:28:01;10.70;;;6.60;;
77085;SDS011;66014;53.134;18.006;2023-08-12T05:30:28;16.20;;;7.00;;
77085;SDS011;66014;53.134;18.006;2023-08-12T05:32:54;16.30;;;7.10;;
77085;SDS011;66014;53.134;18.006;2023-08-12T05:35:21;12.80;;;6.80;;
77085;SDS011;66014;53.134;18.006;2023-08-12T05:37:47;9.80;;;6.70;;
77085;SDS011;66014;53.134;18.006;2023-08-12T05:40:14;14.70;;;6.40;;
77085;SDS011;66014;53.134;18.006;2023-08-12T05:42:40;10.80;;;6.00;;
77085;SDS011;66014;53.134;18.006;2023-08-12T05:45:07;11.90;;;7.10;;
77085;SDS011;66014;53.134;18.006;2023-08-12T05:47:34;15.70;;;6.90;;
77085;SDS011;66014;53.134;18.006;2023-08-12T05:50:00;10.60;;;5.80;;
77085;SDS011;66014;53.134;18.006;2023-08-12T05:52:27;10.20;;;5.60;;
77085;SDS011;66014;53.134;18.006;2023-08-12T05:54:53;11.80;;;5.70;;
77085;SDS011;66014;53.134;18.006;2023-08-12T05:57:20;10.70;;;5.70;;
77085;SDS011;66014;53.134;18.006;2023-08-12T05:59:46;11.60;;;5.30;;
77085;SDS011;66014;53.134;18.006;2023-08-12T06:02:13;9.80;;;5.90;;
77085;SDS011;66014;53.134;18.006;2023-08-12T06:04:40;13.80;;;5.20;;
77085;SDS011;66014;53.134;18.006;2023-08-12T06:07:06;9.10;;;5.30;;
77085;SDS011;66014;53.134;18.006;2023-08-12T06:09:33;9.60;;;5.30;;
77085;SDS011;66014;53.134;18.006;2023-08-12T06:11:59;11.00;;;5.20;;
77085;SDS011;66014;53.134;18.006;2023-08-12T06:14:25;11.00;;;5.40;;
77085;SDS011;66014;53.134;18.006;2023-08-12T06:16:52;8.20;;;4.40;;
77085;SDS011;66014;53.134;18.006;2023-08-12T06:19:19;8.10;;;4.80;;
77085;SDS011;66014;53.134;18.006;2023-08-12T06:21:45;6.60;;;4.20;;
77085;SDS011;66014;53.134;18.006;2023-08-12T06:24:12;8.10;;;4.40;;
77085;SDS011;66014;53.134;18.006;2023-08-12T06:26:39;7.40;;;4.00;;
77085;SDS011;66014;53.134;18.006;2023-08-12T06:29:06;7.10;;;4.10;;
77085;SDS011;66014;53.134;18.006;2023-08-12T06:31:32;6.50;;;4.10;;
77085;SDS011;66014;53.134;18.006;2023-08-12T06:33:59;7.40;;;3.60;;
77085;SDS011;66014;53.134;18.006;2023-08-12T06:36:26;8.70;;;3.60;;
77085;SDS011;66014;53.134;18.006;2023-08-12T06:38:52;7.60;;;3.50;;
77085;SDS011;66014;53.134;18.006;2023-08-12T06:41:19;6.70;;;3.50;;
77085;SDS011;66014;53.134;18.006;2023-08-12T06:43:45;8.30;;;3.40;;
77085;SDS011;66014;53.134;18.006;2023-08-12T06:46:12;7.80;;;3.40;;
77085;SDS011;66014;53.134;18.006;2023-08-12T06:48:39;4.90;;;2.90;;
77085;SDS011;66014;53.134;18.006;2023-08-12T06:51:05;8.60;;;3.00;;
77085;SDS011;66014;53.134;18.006;2023-08-12T06:53:37;7.10;;;2.90;;
77085;SDS011;66014;53.134;18.006;2023-08-12T06:56:07;6.10;;;3.00;;
77085;SDS011;66014;53.134;18.006;2023-08-12T06:58:34;6.20;;;2.50;;
77085;SDS011;66014;53.134;18.006;2023-08-12T07:01:00;7.50;;;2.60;;
77085;SDS011;66014;53.134;18.006;2023-08-12T07:03:29;3.70;;;2.20;;
77085;SDS011;66014;53.134;18.006;2023-08-12T07:05:56;5.20;;;2.40;;
77085;SDS011;66014;53.134;18.006;2023-08-12T07:10:53;4.70;;;2.00;;
77085;SDS011;66014;53.134;18.006;2023-08-12T07:13:25;4.70;;;2.10;;
77085;SDS011;66014;53.134;18.006;2023-08-12T07:15:53;4.60;;;2.10;;
77085;SDS011;66014;53.134;18.006;2023-08-12T07:18:19;5.30;;;2.80;;
77085;SDS011;66014;53.134;18.006;2023-08-12T07:20:47;4.80;;;2.30;;
77085;SDS011;66014;53.134;18.006;2023-08-12T07:23:15;4.80;;;2.40;;
77085;SDS011;66014;53.134;18.006;2023-08-12T07:25:47;5.20;;;2.20;;
77085;SDS011;66014;53.134;18.006;2023-08-12T07:28:13;3.60;;;1.90;;
77085;SDS011;66014;53.134;18.006;2023-08-12T07:30:40;5.40;;;1.60;;
77085;SDS011;66014;53.134;18.006;2023-08-12T07:33:07;5.10;;;2.10;;
77085;SDS011;66014;53.134;18.006;2023-08-12T07:35:36;4.90;;;1.70;;
77085;SDS011;66014;53.134;18.006;2023-08-12T07:38:03;5.60;;;2.00;;
77085;SDS011;66014;53.134;18.006;2023-08-12T07:40:30;3.90;;;1.70;;
77085;SDS011;66014;53.134;18.006;2023-08-12T07:42:57;6.40;;;2.10;;
77085;SDS011;66014;53.134;18.006;2023-08-12T07:45:27;4.90;;;2.00;;
77085;SDS011;66014;53.134;18.006;2023-08-12T07:47:54;5.20;;;1.80;;
77085;SDS011;66014;53.134;18.006;2023-08-12T07:50:21;4.70;;;1.70;;
77085;SDS011;66014;53.134;18.006;2023-08-12T07:52:48;5.80;;;1.80;;
77085;SDS011;66014;53.134;18.006;2023-08-12T07:55:15;4.70;;;1.70;;
77085;SDS011;66014;53.134;18.006;2023-08-12T07:57:44;5.40;;;1.30;;
77085;SDS011;66014;53.134;18.006;2023-08-12T08:00:14;4.80;;;2.10;;
77085;SDS011;66014;53.134;18.006;2023-08-12T08:02:42;3.90;;;1.40;;
77085;SDS011;66014;53.134;18.006;2023-08-12T08:05:10;6.00;;;1.60;;
77085;SDS011;66014;53.134;18.006;2023-08-12T08:07:38;5.90;;;1.60;;
77085;SDS011;66014;53.134;18.006;2023-08-12T08:10:05;4.60;;;1.80;;
77085;SDS011;66014;53.134;18.006;2023-08-12T08:12:32;4.00;;;1.50;;
77085;SDS011;66014;53.134;18.006;2023-08-12T08:15:01;5.90;;;2.00;;
77085;SDS011;66014;53.134;18.006;2023-08-12T08:17:29;4.10;;;1.70;;
77085;SDS011;66014;53.134;18.006;2023-08-12T08:19:56;5.40;;;1.90;;
77085;SDS011;66014;53.134;18.006;2023-08-12T08:22:24;5.00;;;1.60;;
77085;SDS011;66014;53.134;18.006;2023-08-12T08:24:53;3.30;;;1.50;;
77085;SDS011;66014;53.134;18.006;2023-08-12T08:27:19;4.60;;;1.60;;
77085;SDS011;66014;53.134;18.006;2023-08-12T08:29:46;5.70;;;1.50;;
77085;SDS011;66014;53.134;18.006;2023-08-12T08:32:13;3.90;;;2.00;;
77085;SDS011;66014;53.134;18.006;2023-08-12T08:34:42;3.70;;;1.40;;
77085;SDS011;66014;53.134;18.006;2023-08-12T08:37:12;4.50;;;1.60;;
77085;SDS011;66014;53.134;18.006;2023-08-12T08:39:39;3.70;;;1.60;;
77085;SDS011;66014;53.134;18.006;2023-08-12T08:42:05;4.30;;;1.30;;
77085;SDS011;66014;53.134;18.006;2023-08-12T08:44:33;2.90;;;1.40;;
77085;SDS011;66014;53.134;18.006;2023-08-12T08:47:01;4.30;;;1.50;;
77085;SDS011;66014;53.134;18.006;2023-08-12T08:49:29;3.50;;;1.50;;
77085;SDS011;66014;53.134;18.006;2023-08-12T08:54:27;4.50;;;1.50;;
77085;SDS011;66014;53.134;18.006;2023-08-12T08:56:57;3.30;;;1.30;;
77085;SDS011;66014;53.134;18.006;2023-08-12T08:59:25;4.90;;;1.60;;
77085;SDS011;66014;53.134;18.006;2023-08-12T09:01:52;3.10;;;1.50;;
77085;SDS011;66014;53.134;18.006;2023-08-12T09:04:22;3.70;;;1.50;;
77085;SDS011;66014;53.134;18.006;2023-08-12T09:06:51;4.70;;;1.60;;
77085;SDS011;66014;53.134;18.006;2023-08-12T09:09:22;4.00;;;1.70;;
77085;SDS011;66014;53.134;18.006;2023-08-12T09:11:51;4.80;;;1.70;;
77085;SDS011;66014;53.134;18.006;2023-08-12T09:14:19;4.10;;;1.30;;
77085;SDS011;66014;53.134;18.006;2023-08-12T09:16:46;3.90;;;1.40;;
77085;SDS011;66014;53.134;18.006;2023-08-12T09:19:13;2.80;;;1.30;;
77085;SDS011;66014;53.134;18.006;2023-08-12T09:21:40;3.10;;;1.40;;
77085;SDS011;66014;53.134;18.006;2023-08-12T09:24:08;4.90;;;1.40;;
77085;SDS011;66014;53.134;18.006;2023-08-12T09:26:36;3.30;;;1.40;;
77085;SDS011;66014;53.134;18.006;2023-08-12T09:29:03;4.10;;;1.30;;
77085;SDS011;66014;53.134;18.006;2023-08-12T09:31:29;4.30;;;1.70;;
77085;SDS011;66014;53.134;18.006;2023-08-12T09:34:03;3.70;;;1.50;;
77085;SDS011;66014;53.134;18.006;2023-08-12T09:36:34;4.80;;;1.50;;
77085;SDS011;66014;53.134;18.006;2023-08-12T09:39:05;2.40;;;1.30;;
77085;SDS011;66014;53.134;18.006;2023-08-12T09:41:35;4.80;;;1.70;;
77085;SDS011;66014;53.134;18.006;2023-08-12T09:44:03;9.60;;;1.60;;
77085;SDS011;66014;53.134;18.006;2023-08-12T09:46:32;4.40;;;1.60;;
77085;SDS011;66014;53.134;18.006;2023-08-12T09:49:00;4.60;;;1.50;;
77085;SDS011;66014;53.134;18.006;2023-08-12T09:51:26;3.60;;;1.40;;
77085;SDS011;66014;53.134;18.006;2023-08-12T09:53:53;4.70;;;1.50;;
77085;SDS011;66014;53.134;18.006;2023-08-12T09:56:22;5.10;;;1.50;;
77085;SDS011;66014;53.134;18.006;2023-08-12T09:58:49;2.40;;;1.30;;
77085;SDS011;66014;53.134;18.006;2023-08-12T10:01:20;4.20;;;1.50;;
77085;SDS011;66014;53.134;18.006;2023-08-12T10:03:48;4.00;;;1.50;;
77085;SDS011;66014;53.134;18.006;2023-08-12T10:06:17;3.40;;;1.60;;
77085;SDS011;66014;53.134;18.006;2023-08-12T10:08:47;3.00;;;1.40;;
77085;SDS011;66014;53.134;18.006;2023-08-12T10:11:15;3.90;;;1.70;;
77085;SDS011;66014;53.134;18.006;2023-08-12T10:13:43;4.00;;;1.40;;
77085;SDS011;66014;53.134;18.006;2023-08-12T10:16:10;4.80;;;1.40;;
77085;SDS011;66014;53.134;18.006;2023-08-12T10:18:38;4.50;;;1.40;;
77085;SDS011;66014;53.134;18.006;2023-08-12T10:21:05;2.90;;;1.20;;
77085;SDS011;66014;53.134;18.006;2023-08-12T10:23:37;4.40;;;1.40;;
77085;SDS011;66014;53.134;18.006;2023-08-12T10:26:05;5.10;;;1.20;;
77085;SDS011;66014;53.134;18.006;2023-08-12T10:28:34;3.70;;;1.20;;
77085;SDS011;66014;53.134;18.006;2023-08-12T10:31:04;3.30;;;1.30;;
77085;SDS011;66014;53.134;18.006;2023-08-12T10:33:38;3.50;;;1.40;;
77085;SDS011;66014;53.134;18.006;2023-08-12T10:36:06;3.90;;;1.40;;
77085;SDS011;66014;53.134;18.006;2023-08-12T10:38:33;4.20;;;1.50;;
77085;SDS011;66014;53.134;18.006;2023-08-12T10:41:14;2.50;;;1.30;;
77085;SDS011;66014;53.134;18.006;2023-08-12T10:43:55;3.90;;;1.50;;
77085;SDS011;66014;53.134;18.006;2023-08-12T10:48:57;6.10;;;1.40;;
77085;SDS011;66014;53.134;18.006;2023-08-12T10:51:52;5.10;;;1.30;;
77085;SDS011;66014;53.134;18.006;2023-08-12T10:54:23;3.40;;;1.10;;
77085;SDS011;66014;53.134;18.006;2023-08-12T10:57:10;3.50;;;1.30;;
77085;SDS011;66014;53.134;18.006;2023-08-12T11:02:20;3.50;;;1.40;;
77085;SDS011;66014;53.134;18.006;2023-08-12T11:10:05;2.00;;;1.10;;
77085;SDS011;66014;53.134;18.006;2023-08-12T11:12:35;4.70;;;1.40;;
77085;SDS011;66014;53.134;18.006;2023-08-12T11:15:03;4.50;;;1.50;;
77085;SDS011;66014;53.134;18.006;2023-08-12T11:17:34;3.30;;;1.40;;
77085;SDS011;66014;53.134;18.006;2023-08-12T11:20:03;3.90;;;1.10;;
77085;SDS011;66014;53.134;18.006;2023-08-12T11:22:32;5.10;;;1.30;;
77085;SDS011;66014;53.134;18.006;2023-08-12T11:25:01;5.10;;;1.40;;
77085;SDS011;66014;53.134;18.006;2023-08-12T11:27:28;3.10;;;1.20;;
77085;SDS011;66014;53.134;18.006;2023-08-12T11:30:03;2.70;;;1.30;;
77085;SDS011;66014;53.134;18.006;2023-08-12T11:32:31;2.60;;;1.20;;
77085;SDS011;66014;53.134;18.006;2023-08-12T11:34:58;4.20;;;1.50;;
77085;SDS011;66014;53.134;18.006;2023-08-12T11:37:26;3.30;;;1.20;;
77085;SDS011;66014;53.134;18.006;2023-08-12T11:39:52;2.90;;;1.30;;
77085;SDS011;66014;53.134;18.006;2023-08-12T11:42:19;3.50;;;1.20;;
77085;SDS011;66014;53.134;18.006;2023-08-12T11:44:45;3.20;;;1.20;;
77085;SDS011;66014;53.134;18.006;2023-08-12T11:47:11;3.90;;;1.50;;
77085;SDS011;66014;53.134;18.006;2023-08-12T11:49:38;4.30;;;1.20;;
77085;SDS011;66014;53.134;18.006;2023-08-12T11:52:05;5.10;;;1.50;;
77085;SDS011;66014;53.134;18.006;2023-08-12T11:54:32;3.60;;;1.50;;
77085;SDS011;66014;53.134;18.006;2023-08-12T11:56:59;3.60;;;1.30;;
77085;SDS011;66014;53.134;18.006;2023-08-12T11:59:25;3.60;;;1.30;;
77085;SDS011;66014;53.134;18.006;2023-08-12T12:01:54;3.10;;;1.30;;
77085;SDS011;66014;53.134;18.006;2023-08-12T12:04:21;3.60;;;1.50;;
77085;SDS011;66014;53.134;18.006;2023-08-12T12:06:51;3.60;;;1.50;;
77085;SDS011;66014;53.134;18.006;2023-08-12T12:09:18;6.20;;;1.40;;
77085;SDS011;66014;53.134;18.006;2023-08-12T12:11:46;2.00;;;1.00;;
77085;SDS011;66014;53.134;18.006;2023-08-12T12:14:12;3.00;;;1.40;;
77085;SDS011;66014;53.134;18.006;2023-08-12T12:16:43;3.30;;;1.50;;
77085;SDS011;66014;53.134;18.006;2023-08-12T12:19:18;3.80;;;1.40;;
77085;SDS011;66014;53.134;18.006;2023-08-12T12:21:47;5.40;;;1.40;;
77085;SDS011;66014;53.134;18.006;2023-08-12T12:24:15;3.30;;;1.40;;
77085;SDS011;66014;53.134;18.006;2023-08-12T12:26:46;5.30;;;1.50;;
77085;SDS011;66014;53.134;18.006;2023-08-12T12:29:13;3.60;;;1.60;;
77085;SDS011;66014;53.134;18.006;2023-08-12T12:31:41;4.10;;;1.40;;
77085;SDS011;66014;53.134;18.006;2023-08-12T12:34:09;4.90;;;1.30;;
77085;SDS011;66014;53.134;18.006;2023-08-12T12:36:40;3.00;;;1.20;;
77085;SDS011;66014;53.134;18.006;2023-08-12T12:39:07;3.50;;;1.40;;
77085;SDS011;66014;53.134;18.006;2023-08-12T12:41:35;7.00;;;1.40;;
77085;SDS011;66014;53.134;18.006;2023-08-12T12:44:05;5.40;;;1.60;;
77085;SDS011;66014;53.134;18.006;2023-08-12T12:46:37;3.70;;;1.40;;
77085;SDS011;66014;53.134;18.006;2023-08-12T12:49:12;3.00;;;1.30;;
77085;SDS011;66014;53.134;18.006;2023-08-12T12:51:40;4.20;;;1.40;;
77085;SDS011;66014;53.134;18.006;2023-08-12T12:54:09;5.40;;;1.90;;
77085;SDS011;66014;53.134;18.006;2023-08-12T12:56:37;2.70;;;1.50;;
77085;SDS011;66014;53.134;18.006;2023-08-12T12:59:10;4.50;;;1.20;;
77085;SDS011;66014;53.134;18.006;2023-08-12T13:01:37;2.40;;;1.20;;
77085;SDS011;66014;53.134;18.006;2023-08-12T13:04:07;2.20;;;1.10;;
77085;SDS011;66014;53.134;18.006;2023-08-12T13:06:38;3.20;;;1.40;;
77085;SDS011;66014;53.134;18.006;2023-08-12T13:09:06;2.60;;;1.20;;
77085;SDS011;66014;53.134;18.006;2023-08-12T13:11:36;2.70;;;1.20;;
77085;SDS011;66014;53.134;18.006;2023-08-12T13:14:03;3.80;;;1.40;;
77085;SDS011;66014;53.134;18.006;2023-08-12T13:16:30;4.70;;;1.70;;
77085;SDS011;66014;53.134;18.006;2023-08-12T13:18:57;2.60;;;1.00;;
77085;SDS011;66014;53.134;18.006;2023-08-12T13:21:30;4.00;;;1.40;;
77085;SDS011;66014;53.134;18.006;2023-08-12T13:23:59;2.70;;;1.30;;
77085;SDS011;66014;53.134;18.006;2023-08-12T13:26:25;3.40;;;1.30;;
77085;SDS011;66014;53.134;18.006;2023-08-12T13:28:56;4.10;;;1.60;;
77085;SDS011;66014;53.134;18.006;2023-08-12T13:31:25;2.70;;;1.30;;
77085;SDS011;66014;53.134;18.006;2023-08-12T13:33:52;3.50;;;1.40;;
77085;SDS011;66014;53.134;18.006;2023-08-12T13:36:19;4.10;;;1.40;;
77085;SDS011;66014;53.134;18.006;2023-08-12T13:38:54;3.30;;;1.30;;
77085;SDS011;66014;53.134;18.006;2023-08-12T13:41:21;3.10;;;1.30;;
77085;SDS011;66014;53.134;18.006;2023-08-12T13:43:50;4.40;;;1.70;;
77085;SDS011;66014;53.134;18.006;2023-08-12T13:46:18;3.30;;;1.40;;
77085;SDS011;66014;53.134;18.006;2023-08-12T13:48:47;3.70;;;1.70;;
77085;SDS011;66014;53.134;18.006;2023-08-12T13:51:18;4.90;;;1.60;;
77085;SDS011;66014;53.134;18.006;2023-08-12T13:53:45;3.70;;;1.40;;
77085;SDS011;66014;53.134;18.006;2023-08-12T13:56:12;4.00;;;1.40;;
77085;SDS011;66014;53.134;18.006;2023-08-12T13:58:39;3.70;;;1.40;;
77085;SDS011;66014;53.134;18.006;2023-08-12T14:01:06;2.90;;;1.40;;
77085;SDS011;66014;53.134;18.006;2023-08-12T14:03:34;3.00;;;1.40;;
77085;SDS011;66014;53.134;18.006;2023-08-12T14:06:02;3.20;;;1.40;;
77085;SDS011;66014;53.134;18.006;2023-08-12T14:08:30;2.80;;;1.10;;
77085;SDS011;66014;53.134;18.006;2023-08-12T14:10:57;2.50;;;1.40;;
77085;SDS011;66014;53.134;18.006;2023-08-12T14:13:23;4.90;;;1.50;;
77085;SDS011;66014;53.134;18.006;2023-08-12T14:15:53;4.10;;;1.90;;
77085;SDS011;66014;53.134;18.006;2023-08-12T14:18:21;3.80;;;1.50;;
77085;SDS011;66014;53.134;18.006;2023-08-12T14:20:48;6.30;;;1.90;;
77085;SDS011;66014;53.134;18.006;2023-08-12T14:23:14;4.00;;;1.80;;
77085;SDS011;66014;53.134;18.006;2023-08-12T14:25:41;3.10;;;1.30;;
77085;SDS011;66014;53.134;18.006;2023-08-12T14:28:08;3.10;;;1.80;;
77085;SDS011;66014;53.134;18.006;2023-08-12T14:30:35;5.40;;;1.70;;
77085;SDS011;66014;53.134;18.006;2023-08-12T14:33:03;4.70;;;1.60;;
77085;SDS011;66014;53.134;18.006;2023-08-12T14:35:29;3.60;;;1.40;;
77085;SDS011;66014;53.134;18.006;2023-08-12T14:37:56;3.90;;;1.40;;
77085;SDS011;66014;53.134;18.006;2023-08-12T14:40:22;3.30;;;1.80;;
77085;SDS011;66014;53.134;18.006;2023-08-12T14:42:49;3.10;;;1.40;;
77085;SDS011;66014;53.134;18.006;2023-08-12T14:45:15;3.50;;;1.70;;
77085;SDS011;66014;53.134;18.006;2023-08-12T14:47:42;6.20;;;1.90;;
77085;SDS011;66014;53.134;18.006;2023-08-12T14:50:08;4.00;;;2.00;;
77085;SDS011;66014;53.134;18.006;2023-08-12T14:52:36;4.50;;;1.50;;